createdAt,value
2022-10-08T00:01:16.105Z,75.28
2022-10-08T00:03:45.141Z,75.06
2022-10-08T00:06:16.375Z,75.53
2022-10-08T00:08:49.879Z,75.59
2022-10-08T00:11:21.323Z,75.41
2022-10-08T00:13:50.789Z,75.07
2022-10-08T00:16:30.146Z,75.41
2022-10-08T00:19:02.616Z,75.43
2022-10-08T00:21:34.848Z,75.73
2022-10-08T00:24:03.259Z,75.66
2022-10-08T00:26:32.201Z,75.57
2022-10-08T00:29:02.286Z,75.65
2022-10-08T00:31:35.137Z,75.87
2022-10-08T00:34:04.663Z,75.81
2022-10-08T00:36:34.162Z,75.79
2022-10-08T00:39:04.130Z,75.92
2022-10-08T00:41:35.030Z,75.84
2022-10-08T00:44:05.355Z,75.98
2022-10-08T00:46:43.018Z,75.61
2022-10-08T00:49:12.754Z,75.77
2022-10-08T00:51:45.585Z,76.05
2022-10-08T00:54:13.784Z,75.67
2022-10-08T00:56:41.818Z,75.63
2022-10-08T00:59:11.018Z,75.78
2022-10-08T01:01:44.071Z,75.91
2022-10-08T01:04:13.973Z,76.03
2022-10-08T01:06:54.795Z,76.16
2022-10-08T01:09:39.134Z,76.25
2022-10-08T01:12:18.343Z,76.33
2022-10-08T01:14:54.493Z,76.25
2022-10-08T01:17:49.160Z,76.60
2022-10-08T01:20:16.068Z,76.67
2022-10-08T01:22:43.063Z,76.53
2022-10-08T01:25:34.974Z,76.85
2022-10-08T01:28:23.285Z,76.80
2022-10-08T01:31:05.564Z,76.72
2022-10-08T01:33:38.715Z,76.56
2022-10-08T01:36:08.435Z,76.59
2022-10-08T01:38:41.384Z,76.91
2022-10-08T01:41:12.073Z,77.06
2022-10-08T01:43:44.872Z,76.79
2022-10-08T01:46:22.839Z,76.25
2022-10-08T01:48:54.145Z,76.68
2022-10-08T01:51:27.619Z,76.87
2022-10-08T01:53:56.319Z,76.63
2022-10-08T01:56:27.386Z,76.62
2022-10-08T01:59:26.617Z,76.72
2022-10-08T02:02:08.342Z,76.72
2022-10-08T02:04:36.068Z,76.57
2022-10-08T02:07:17.486Z,76.77
2022-10-08T02:09:49.048Z,76.58
2022-10-08T02:12:16.454Z,76.48
2022-10-08T02:14:53.490Z,76.72
2022-10-08T02:17:36.200Z,76.72
2022-10-08T02:20:06.314Z,76.74
2022-10-08T02:22:38.031Z,76.73
2022-10-08T02:25:22.177Z,77.02
2022-10-08T02:27:56.146Z,76.70
2022-10-08T02:30:24.542Z,76.81
2022-10-08T02:33:05.847Z,76.83
2022-10-08T02:35:39.966Z,76.78
2022-10-08T02:38:11.994Z,76.47
2022-10-08T02:40:44.462Z,76.70
2022-10-08T02:43:21.111Z,77.08
2022-10-08T02:45:55.741Z,76.95
2022-10-08T02:48:33.766Z,77.11
2022-10-08T02:51:10.875Z,77.03
2022-10-08T02:53:40.801Z,76.95
2022-10-08T02:56:20.718Z,76.87
2022-10-08T02:58:48.267Z,76.93
2022-10-08T03:01:35.473Z,77.13
2022-10-08T03:04:22.609Z,76.97
2022-10-08T03:06:51.326Z,77.36
2022-10-08T03:09:19.511Z,77.37
2022-10-08T03:11:47.235Z,77.01
2022-10-08T03:14:17.136Z,77.48
2022-10-08T03:16:46.408Z,77.67
2022-10-08T03:19:16.015Z,77.60
2022-10-08T03:21:48.742Z,77.57
2022-10-08T03:24:16.496Z,77.27
2022-10-08T03:26:43.719Z,77.13
2022-10-08T03:29:11.143Z,77.64
2022-10-08T03:31:38.081Z,77.78
2022-10-08T03:34:05.417Z,77.47
2022-10-08T03:36:32.512Z,78.16
2022-10-08T03:38:59.635Z,77.64
2022-10-08T03:41:26.556Z,77.51
2022-10-08T03:43:53.482Z,77.67
2022-10-08T03:46:20.681Z,77.48
2022-10-08T03:48:49.554Z,77.80
2022-10-08T03:51:18.557Z,77.83
2022-10-08T03:53:46.537Z,77.91
2022-10-08T03:56:17.071Z,77.46
2022-10-08T03:58:44.289Z,77.78
2022-10-08T04:01:15.151Z,78.16
2022-10-08T04:03:42.640Z,78.12
2022-10-08T04:06:09.773Z,77.89
2022-10-08T04:08:37.406Z,78.51
2022-10-08T04:11:12.460Z,78.20
2022-10-08T04:13:39.857Z,78.12
2022-10-08T04:16:15.533Z,78.42
2022-10-08T04:18:43.134Z,78.03
2022-10-08T04:21:13.870Z,78.02
2022-10-08T04:23:41.741Z,78.26
2022-10-08T04:26:10.206Z,78.05
2022-10-08T04:28:39.395Z,78.17
2022-10-08T04:31:17.060Z,78.09
2022-10-08T04:33:45.438Z,77.80
2022-10-08T04:36:14.856Z,77.60
2022-10-08T04:38:45.845Z,78.04
2022-10-08T04:41:15.795Z,77.88
2022-10-08T04:43:44.333Z,77.74
2022-10-08T04:46:14.711Z,77.81
2022-10-08T04:48:47.039Z,77.72
2022-10-08T04:51:14.731Z,76.84
2022-10-08T04:53:41.722Z,77.38
2022-10-08T04:56:17.651Z,77.74
2022-10-08T04:58:45.415Z,77.72
2022-10-08T05:01:14.895Z,77.42
2022-10-08T05:03:44.426Z,77.86
2022-10-08T05:06:12.414Z,77.72
2022-10-08T05:08:39.700Z,76.49
2022-10-08T05:11:07.157Z,76.76
2022-10-08T05:13:34.727Z,76.99
2022-10-08T05:16:13.118Z,77.53
2022-10-08T05:18:41.936Z,77.21
2022-10-08T05:21:11.889Z,77.16
2022-10-08T05:23:39.907Z,77.37
2022-10-08T05:26:13.063Z,77.13
2022-10-08T05:28:40.428Z,77.13
2022-10-08T05:31:07.489Z,77.06
2022-10-08T05:33:36.539Z,77.39
2022-10-08T05:36:05.561Z,77.42
2022-10-08T05:38:34.965Z,77.17
2022-10-08T05:41:12.785Z,77.40
2022-10-08T05:43:40.038Z,77.26
2022-10-08T05:46:07.819Z,76.85
2022-10-08T05:48:35.295Z,76.88
2022-10-08T05:51:16.737Z,76.87
2022-10-08T05:53:47.424Z,76.52
2022-10-08T05:56:16.903Z,76.86
2022-10-08T05:58:44.826Z,76.18
2022-10-08T06:01:16.236Z,76.43
2022-10-08T06:03:43.400Z,76.41
2022-10-08T06:06:12.147Z,76.48
2022-10-08T06:08:39.124Z,76.18
2022-10-08T06:11:06.579Z,75.84
2022-10-08T06:13:34.230Z,75.83
2022-10-08T06:16:09.241Z,75.77
2022-10-08T06:18:41.024Z,75.83
2022-10-08T06:21:13.429Z,75.62
2022-10-08T06:23:46.395Z,75.68
2022-10-08T06:26:13.633Z,75.74
2022-10-08T06:28:40.787Z,76.24
2022-10-08T06:31:08.819Z,76.40
2022-10-08T06:33:36.499Z,76.03
2022-10-08T06:36:13.384Z,76.11
2022-10-08T06:38:40.590Z,76.41
2022-10-08T06:41:07.965Z,76.23
2022-10-08T06:43:35.930Z,76.20
2022-10-08T06:46:07.317Z,76.03
2022-10-08T06:48:35.134Z,76.52
2022-10-08T06:51:08.399Z,77.00
2022-10-08T06:53:35.680Z,76.47
2022-10-08T06:56:04.949Z,78.06
2022-10-08T06:58:31.966Z,77.35
2022-10-08T07:01:07.815Z,77.71
2022-10-08T07:03:36.340Z,77.56
2022-10-08T07:06:05.917Z,77.03
2022-10-08T07:08:33.402Z,77.57
2022-10-08T07:11:15.285Z,77.40
2022-10-08T07:13:46.011Z,77.42
2022-10-08T07:16:22.267Z,77.31
2022-10-08T07:18:51.639Z,77.53
2022-10-08T07:21:21.142Z,76.80
2022-10-08T07:23:48.262Z,77.20
2022-10-08T07:26:21.156Z,76.30
2022-10-08T07:29:00.292Z,76.21
2022-10-08T07:31:32.782Z,76.19
2022-10-08T07:34:01.688Z,76.55
2022-10-08T07:36:29.831Z,76.36
2022-10-08T07:39:00.918Z,75.85
2022-10-08T07:41:29.397Z,75.68
2022-10-08T07:44:01.058Z,75.03
2022-10-08T07:46:29.562Z,74.75
2022-10-08T07:48:59.417Z,74.02
2022-10-08T07:51:27.593Z,73.88
2022-10-08T07:53:56.775Z,73.28
2022-10-08T07:56:27.532Z,73.96
2022-10-08T07:58:54.479Z,74.26
2022-10-08T08:01:23.315Z,73.94
2022-10-08T08:03:55.913Z,73.22
2022-10-08T08:06:24.653Z,73.08
2022-10-08T08:08:52.529Z,73.55
2022-10-08T08:11:22.190Z,73.09
2022-10-08T08:13:49.661Z,73.02
2022-10-08T08:16:22.367Z,72.66
2022-10-08T08:18:52.373Z,72.54
2022-10-08T08:21:24.925Z,72.51
2022-10-08T08:23:54.509Z,72.63
2022-10-08T08:26:33.198Z,71.83
2022-10-08T08:29:04.561Z,71.76
2022-10-08T08:31:35.385Z,71.01
2022-10-08T08:34:03.848Z,70.36
2022-10-08T08:36:33.833Z,70.04
2022-10-08T08:39:01.969Z,70.09
2022-10-08T08:41:32.682Z,68.85
2022-10-08T08:44:00.387Z,69.14
2022-10-08T08:46:30.391Z,68.70
2022-10-08T08:49:05.658Z,69.63
2022-10-08T08:51:32.856Z,68.64
2022-10-08T08:54:00.339Z,68.63
2022-10-08T08:56:28.351Z,67.95
2022-10-08T08:58:59.509Z,68.24
2022-10-08T09:01:43.347Z,68.62
2022-10-08T09:04:36.351Z,68.68
2022-10-08T09:07:08.374Z,68.54
2022-10-08T09:09:45.400Z,68.42
2022-10-08T09:12:41.914Z,69.08
2022-10-08T09:15:34.342Z,68.51
2022-10-08T09:18:04.607Z,68.76
2022-10-08T09:20:34.664Z,68.61
2022-10-08T09:23:18.656Z,68.98
2022-10-08T09:26:00.956Z,68.14
2022-10-08T09:28:39.927Z,67.69
2022-10-08T09:31:18.203Z,67.36
2022-10-08T09:33:53.228Z,67.55
2022-10-08T09:36:40.919Z,66.56
2022-10-08T09:39:23.884Z,66.39
2022-10-08T09:42:20.130Z,66.55
2022-10-08T09:44:50.546Z,65.86
2022-10-08T09:47:22.846Z,65.50
2022-10-08T09:50:05.390Z,64.60
2022-10-08T09:52:34.809Z,65.28
2022-10-08T09:55:09.274Z,65.06
2022-10-08T09:57:45.277Z,65.00
2022-10-08T10:00:26.134Z,63.82
2022-10-08T10:02:54.218Z,64.33
2022-10-08T10:05:27.642Z,63.65
2022-10-08T10:07:54.888Z,62.93
2022-10-08T10:10:29.463Z,63.27
2022-10-08T10:13:03.026Z,63.83
2022-10-08T10:15:40.262Z,63.20
2022-10-08T10:18:17.635Z,63.88
2022-10-08T10:20:51.646Z,63.95
2022-10-08T10:23:39.557Z,63.63
2022-10-08T10:26:15.150Z,63.05
2022-10-08T10:29:01.301Z,62.81
2022-10-08T10:31:34.843Z,63.85
2022-10-08T10:34:14.903Z,63.20
2022-10-08T10:37:11.951Z,63.43
2022-10-08T10:39:46.567Z,63.25
2022-10-08T10:42:49.552Z,62.99
2022-10-08T10:45:28.258Z,63.08
2022-10-08T10:47:56.721Z,62.71
2022-10-08T10:50:44.416Z,63.39
2022-10-08T10:53:22.564Z,63.00
2022-10-08T10:56:05.462Z,63.06
2022-10-08T10:58:32.361Z,63.26
2022-10-08T11:01:26.731Z,62.96
2022-10-08T11:04:31.091Z,62.51
2022-10-08T11:07:16.798Z,62.40
2022-10-08T11:09:49.631Z,62.76
2022-10-08T11:12:46.082Z,61.97
2022-10-08T11:15:33.093Z,62.31
2022-10-08T11:18:12.734Z,61.75
2022-10-08T11:20:40.125Z,61.55
2022-10-08T11:23:17.799Z,61.81
2022-10-08T11:26:21.417Z,61.13
2022-10-08T11:29:07.142Z,61.34
2022-10-08T11:31:41.708Z,62.57
2022-10-08T11:34:29.813Z,61.71
2022-10-08T11:37:14.758Z,62.72
2022-10-08T11:40:06.080Z,62.05
2022-10-08T11:42:49.365Z,61.43
2022-10-08T11:45:26.213Z,61.87
2022-10-08T11:47:55.081Z,62.12
2022-10-08T11:50:28.184Z,62.06
2022-10-08T11:53:14.989Z,62.53
2022-10-08T11:55:53.818Z,62.20
2022-10-08T11:58:28.857Z,62.17
2022-10-08T12:01:10.324Z,62.07
2022-10-08T12:03:40.570Z,62.52
2022-10-08T12:06:24.209Z,61.90
2022-10-08T12:09:05.838Z,62.41
2022-10-08T12:11:32.833Z,62.42
2022-10-08T12:14:11.659Z,62.54
2022-10-08T12:16:47.970Z,62.48
2022-10-08T12:19:35.578Z,62.82
2022-10-08T12:22:14.899Z,62.54
2022-10-08T12:24:45.967Z,63.36
2022-10-08T12:27:18.969Z,62.89
2022-10-08T12:30:15.375Z,62.94
2022-10-08T12:32:42.293Z,63.21
2022-10-08T12:35:33.795Z,63.36
2022-10-08T12:38:15.830Z,63.32
2022-10-08T12:41:13.338Z,63.70
2022-10-08T12:43:52.374Z,64.24
2022-10-08T12:46:28.414Z,63.80
2022-10-08T12:49:12.229Z,63.35
2022-10-08T12:51:54.237Z,63.54
2022-10-08T12:54:26.923Z,63.98
2022-10-08T12:56:54.140Z,63.98
2022-10-08T12:59:24.697Z,63.92
2022-10-08T13:01:54.209Z,63.75
2022-10-08T13:04:24.338Z,64.42
2022-10-08T13:06:53.710Z,64.44
2022-10-08T13:09:31.988Z,64.91
2022-10-08T13:12:03.945Z,64.31
2022-10-08T13:14:36.981Z,64.50
2022-10-08T13:17:05.340Z,64.98
2022-10-08T13:19:37.357Z,64.76
2022-10-08T13:22:08.332Z,64.82
2022-10-08T13:24:43.498Z,63.95
2022-10-08T13:27:42.674Z,64.00
2022-10-08T13:30:30.289Z,63.28
2022-10-08T13:33:16.015Z,63.49
2022-10-08T13:35:43.761Z,63.87
2022-10-08T13:38:20.533Z,63.42
2022-10-08T13:40:52.738Z,63.60
2022-10-08T13:43:20.348Z,64.11
2022-10-08T13:45:47.553Z,63.68
2022-10-08T13:48:15.366Z,64.12
2022-10-08T13:50:47.301Z,64.00
2022-10-08T13:53:15.663Z,63.39
2022-10-08T13:55:44.895Z,63.92
2022-10-08T13:58:14.374Z,64.12
2022-10-08T14:00:42.810Z,64.17
2022-10-08T14:03:10.827Z,64.13
2022-10-08T14:05:41.555Z,64.15
2022-10-08T14:08:16.506Z,64.68
2022-10-08T14:10:44.498Z,63.97
2022-10-08T14:13:16.098Z,64.63
2022-10-08T14:15:44.141Z,64.79
2022-10-08T14:18:11.337Z,64.64
2022-10-08T14:20:38.574Z,64.78
2022-10-08T14:23:05.655Z,64.54
2022-10-08T14:25:32.826Z,64.68
2022-10-08T14:28:01.070Z,65.44
2022-10-08T14:30:28.675Z,65.53
2022-10-08T14:32:56.294Z,65.45
2022-10-08T14:35:24.064Z,65.64
2022-10-08T14:37:51.311Z,65.60
2022-10-08T14:40:21.603Z,65.30
2022-10-08T14:42:49.050Z,65.26
2022-10-08T14:45:16.387Z,66.28
2022-10-08T14:47:43.391Z,65.79
2022-10-08T14:50:10.639Z,66.10
2022-10-08T14:52:41.856Z,66.77
2022-10-08T14:55:11.712Z,66.43
2022-10-08T14:57:38.739Z,66.38
2022-10-08T15:00:06.587Z,66.70
2022-10-08T15:02:34.725Z,67.11
2022-10-08T15:05:02.294Z,67.01
2022-10-08T15:07:32.219Z,67.51
2022-10-08T15:09:59.204Z,67.54
2022-10-08T15:12:26.257Z,68.04
2022-10-08T15:14:53.264Z,67.76
2022-10-08T15:17:20.192Z,67.91
2022-10-08T15:19:47.405Z,67.82
2022-10-08T15:22:14.323Z,68.39
2022-10-08T15:24:41.741Z,69.19
2022-10-08T15:27:08.625Z,68.95
2022-10-08T15:29:36.590Z,69.07
2022-10-08T15:32:03.702Z,69.92
2022-10-08T15:34:30.755Z,69.67
2022-10-08T15:36:57.707Z,70.72
2022-10-08T15:39:24.814Z,70.56
2022-10-08T15:41:53.533Z,70.75
2022-10-08T15:44:29.380Z,70.46
2022-10-08T15:47:07.679Z,70.95
2022-10-08T15:49:37.589Z,71.43
2022-10-08T15:52:06.910Z,71.44
2022-10-08T15:54:38.194Z,71.65
2022-10-08T15:57:05.899Z,71.81
2022-10-08T15:59:33.652Z,71.53
2022-10-08T16:02:00.686Z,71.73
2022-10-08T16:04:27.742Z,71.89
2022-10-08T16:06:57.913Z,72.10
2022-10-08T16:09:25.071Z,72.17
2022-10-08T16:11:52.568Z,72.50
2022-10-08T16:14:22.491Z,72.18
2022-10-08T16:16:51.287Z,72.68
2022-10-08T16:19:25.056Z,72.37
2022-10-08T16:21:54.662Z,72.78
2022-10-08T16:24:22.204Z,72.36
2022-10-08T16:26:49.302Z,71.72
2022-10-08T16:29:18.443Z,72.19
2022-10-08T16:31:46.636Z,72.74
2022-10-08T16:34:16.947Z,72.45
2022-10-08T16:36:44.490Z,72.03
2022-10-08T16:39:13.845Z,72.87
2022-10-08T16:41:41.104Z,72.58
2022-10-08T16:44:13.753Z,71.80
2022-10-08T16:46:44.070Z,72.73
2022-10-08T16:49:27.430Z,72.62
2022-10-08T16:51:56.858Z,72.56
2022-10-08T16:54:24.282Z,72.53
2022-10-08T16:56:51.527Z,72.41
2022-10-08T16:59:23.883Z,72.57
2022-10-08T17:01:53.248Z,72.19
2022-10-08T17:04:22.268Z,72.10
2022-10-08T17:06:49.226Z,71.90
2022-10-08T17:09:16.475Z,72.32
2022-10-08T17:11:43.685Z,72.27
2022-10-08T17:14:12.053Z,73.16
2022-10-08T17:16:40.548Z,72.52
2022-10-08T17:19:07.552Z,72.24
2022-10-08T17:21:35.305Z,73.21
2022-10-08T17:24:03.185Z,73.12
2022-10-08T17:26:31.199Z,73.46
2022-10-08T17:29:03.982Z,75.08
2022-10-08T17:31:32.127Z,76.62
2022-10-08T17:34:00.184Z,77.14
2022-10-08T17:36:33.211Z,77.86
2022-10-08T17:39:01.893Z,77.53
2022-10-08T17:41:34.705Z,78.47
2022-10-08T17:44:04.413Z,79.50
2022-10-08T17:46:41.990Z,79.17
2022-10-08T17:49:09.175Z,79.52
2022-10-08T17:51:36.105Z,79.75
2022-10-08T17:54:10.627Z,79.99
2022-10-08T17:56:37.598Z,79.90
2022-10-08T17:59:05.056Z,80.63
2022-10-08T18:01:35.009Z,80.65
2022-10-08T18:04:06.941Z,80.81
2022-10-08T18:06:36.165Z,80.57
2022-10-08T18:09:06.399Z,80.28
2022-10-08T18:11:35.818Z,80.70
2022-10-08T18:14:04.175Z,80.77
2022-10-08T18:16:31.322Z,80.58
2022-10-08T18:18:58.385Z,80.71
2022-10-08T18:21:25.625Z,80.75
2022-10-08T18:23:52.837Z,80.59
2022-10-08T18:26:24.100Z,81.02
2022-10-08T18:28:53.574Z,80.62
2022-10-08T18:31:22.263Z,80.85
2022-10-08T18:33:50.936Z,80.99
2022-10-08T18:36:22.942Z,81.34
2022-10-08T18:38:56.436Z,81.14
2022-10-08T18:41:26.843Z,81.14
2022-10-08T18:43:53.981Z,81.17
2022-10-08T18:46:22.536Z,82.18
2022-10-08T18:48:50.073Z,81.35
2022-10-08T18:51:22.734Z,82.12
2022-10-08T18:53:50.903Z,81.66
2022-10-08T18:56:32.213Z,81.59
2022-10-08T18:59:04.513Z,81.16
2022-10-08T19:01:37.409Z,80.79
2022-10-08T19:04:07.693Z,80.87
2022-10-08T19:06:39.374Z,80.55
2022-10-08T19:09:07.406Z,79.77
2022-10-08T19:11:41.885Z,79.85
2022-10-08T19:14:13.808Z,79.59
2022-10-08T19:16:41.720Z,80.21
2022-10-08T19:19:13.407Z,80.50
2022-10-08T19:21:40.375Z,80.00
2022-10-08T19:24:11.215Z,80.29
2022-10-08T19:26:38.124Z,80.67
2022-10-08T19:29:05.048Z,80.22
2022-10-08T19:31:36.323Z,80.10
2022-10-08T19:34:05.544Z,80.38
2022-10-08T19:36:36.762Z,80.08
2022-10-08T19:39:07.619Z,80.29
2022-10-08T19:41:34.582Z,80.59
2022-10-08T19:44:01.535Z,80.42
2022-10-08T19:46:29.477Z,80.05
2022-10-08T19:48:59.107Z,79.99
2022-10-08T19:51:27.468Z,79.69
2022-10-08T19:53:55.419Z,79.42
2022-10-08T19:56:22.505Z,79.28
2022-10-08T19:58:53.476Z,79.86
2022-10-08T20:01:23.783Z,79.63
2022-10-08T20:03:56.185Z,79.45
2022-10-08T20:06:25.840Z,79.57
2022-10-08T20:08:54.958Z,79.40
2022-10-08T20:11:22.798Z,79.35
2022-10-08T20:13:51.565Z,79.38
2022-10-08T20:16:30.649Z,79.93
2022-10-08T20:19:02.944Z,79.75
2022-10-08T20:21:31.924Z,79.72
2022-10-08T20:23:59.536Z,79.88
2022-10-08T20:26:31.846Z,80.13
2022-10-08T20:29:00.955Z,79.63
2022-10-08T20:31:31.103Z,79.63
2022-10-08T20:34:00.634Z,79.18
2022-10-08T20:36:29.318Z,79.51
2022-10-08T20:38:57.216Z,79.30
2022-10-08T20:41:30.370Z,78.67
2022-10-08T20:44:00.647Z,78.86
2022-10-08T20:46:27.923Z,79.00
2022-10-08T20:48:55.191Z,79.05
2022-10-08T20:51:24.133Z,79.39
2022-10-08T20:53:53.695Z,79.14
2022-10-08T20:56:22.261Z,78.94
2022-10-08T20:58:49.975Z,78.91
2022-10-08T21:01:23.745Z,79.10
2022-10-08T21:03:51.491Z,79.33
2022-10-08T21:06:23.274Z,78.45
2022-10-08T21:08:51.750Z,78.34
2022-10-08T21:11:21.306Z,78.57
2022-10-08T21:13:48.974Z,78.28
2022-10-08T21:16:18.202Z,78.11
2022-10-08T21:18:49.227Z,77.91
2022-10-08T21:21:16.993Z,77.51
2022-10-08T21:23:44.425Z,77.31
2022-10-08T21:26:17.249Z,77.26
2022-10-08T21:28:46.470Z,77.11
2022-10-08T21:31:14.799Z,77.07
2022-10-08T21:33:47.240Z,77.42
2022-10-08T21:36:17.296Z,77.54
2022-10-08T21:38:44.217Z,77.68
2022-10-08T21:41:13.626Z,77.68
2022-10-08T21:43:45.464Z,77.03
2022-10-08T21:46:15.054Z,77.89
2022-10-08T21:48:42.354Z,77.00
2022-10-08T21:51:12.670Z,77.55
2022-10-08T21:53:44.384Z,77.61
2022-10-08T21:56:15.047Z,77.58
2022-10-08T21:58:44.834Z,77.77
2022-10-08T22:01:59.418Z,78.11
2022-10-08T22:04:26.633Z,77.98
2022-10-08T22:06:58.852Z,77.77
2022-10-08T22:09:28.245Z,77.68
2022-10-08T22:11:56.468Z,77.80
2022-10-08T22:14:24.286Z,78.22
2022-10-08T22:16:51.690Z,78.00
2022-10-08T22:19:18.892Z,78.07
2022-10-08T22:21:46.589Z,77.84
2022-10-08T22:24:13.963Z,77.77
2022-10-08T22:26:44.519Z,78.36
2022-10-08T22:29:12.030Z,78.20
2022-10-08T22:31:39.623Z,78.73
2022-10-08T22:34:06.618Z,77.40
2022-10-08T22:36:36.845Z,78.00
2022-10-08T22:39:04.306Z,78.30
2022-10-08T22:41:32.512Z,78.28
2022-10-08T22:44:00.416Z,78.08
2022-10-08T22:46:30.354Z,78.14
2022-10-08T22:49:03.656Z,77.44
2022-10-08T22:51:31.032Z,77.05
2022-10-08T22:53:59.597Z,77.33
2022-10-08T22:56:29.721Z,77.64
2022-10-08T22:58:58.710Z,77.31
2022-10-08T23:01:27.162Z,78.46
2022-10-08T23:03:54.816Z,78.34
2022-10-08T23:06:24.682Z,78.02
2022-10-08T23:09:02.830Z,77.82
2022-10-08T23:11:32.029Z,78.65
2022-10-08T23:14:00.039Z,78.46
2022-10-08T23:16:28.200Z,78.82
2022-10-08T23:19:01.713Z,78.63
2022-10-08T23:21:29.482Z,79.03
2022-10-08T23:23:57.431Z,79.10
2022-10-08T23:26:25.752Z,79.28
2022-10-08T23:28:54.967Z,78.84
2022-10-08T23:31:25.175Z,79.24
2022-10-08T23:33:53.756Z,79.26
2022-10-08T23:36:26.515Z,79.10
2022-10-08T23:38:53.571Z,79.49
2022-10-08T23:41:20.779Z,78.70
2022-10-08T23:43:49.951Z,78.31
2022-10-08T23:46:19.797Z,79.41
2022-10-08T23:48:46.989Z,79.35
2022-10-08T23:51:15.075Z,79.13
2022-10-08T23:53:43.427Z,79.02
2022-10-08T23:56:11.548Z,79.57
2022-10-08T23:58:38.985Z,79.81
